Hanseatic Scout — V2BM2 — position and weather

sailwx.info

Track history (hours):
 
Tides and Currents Weather Stations Pressure Air Temp Water Temp Dewpoint Dewpoint Depression Visibility Wind Speed Wind Dir Waves Ship Positions

Hanseatic Scout

Last reported at 2017-Apr-28 02:00 UTC. Time now 2017-Apr-28 02:15 UTC.
Position N 35°09' E 014°29'.

Length 89 m; draft 3.6 m.

Type: Ship. MMSI: 304867000.

Date/timePositionNaut miles runAvg speedWind from/ knotsBaromVisibWave heightAir tempDewpointWater temp
2017-Apr-28 02:00N 35°09' E 014°29'612.0
2017-Apr-28 01:30N 35°12' E 014°35'612.1
2017-Apr-28 01:00N 35°15' E 014°42'812.1
2017-Apr-28 00:22N 35°19' E 014°50'411.9
2017-Apr-28 00:00N 35°21' E 014°54'611.8
2017-Apr-27 23:30N 35°24' E 015°01'611.5
2017-Apr-27 23:01N 35°27' E 015°07'611.3
2017-Apr-27 22:30N 35°30' E 015°13'611.4
2017-Apr-27 22:00N 35°32' E 015°19'611.2
2017-Apr-27 21:29N 35°36' E 015°25'611.7
2017-Apr-27 21:00N 35°38' E 015°31'611.9
2017-Apr-27 20:30N 35°41' E 015°38'612.1
2017-Apr-27 20:01N 35°44' E 015°44'611.9
2017-Apr-27 19:30N 35°47' E 015°50'611.7
2017-Apr-27 19:00N 35°50' E 015°56'611.6
2017-Apr-27 18:30N 35°54' E 016°02'611.5
2017-Apr-27 18:00N 35°57' E 016°08'611.6
2017-Apr-27 17:31N 35°59' E 016°15'611.8
2017-Apr-27 17:00N 36°02' E 016°21'611.6
2017-Apr-27 16:31N 36°05' E 016°27'611.7
2017-Apr-27 16:01N 36°08' E 016°34'6710.9
2017-Apr-27 09:51N 36°41' E 017°46'3012.1
2017-Apr-27 07:22N 36°56' E 018°19'411.7
2017-Apr-27 07:00N 36°59' E 018°23'1111.8
2017-Apr-27 06:04N 37°04' E 018°35'112.0
2017-Apr-27 06:00N 37°05' E 018°36'612.0
2017-Apr-27 05:30N 37°07' E 018°43'611.8
2017-Apr-27 05:00N 37°10' E 018°49'611.3
2017-Apr-27 04:30N 37°13' E 018°55'611.2
2017-Apr-27 04:00N 37°16' E 019°01'611.3
2017-Apr-27 03:30N 37°19' E 019°07'611.5
2017-Apr-27 03:00N 37°22' E 019°14'611.6
2017-Apr-27 02:28N 37°25' E 019°20'2311.8
2017-Apr-27 00:31N 37°36' E 019°45'111.9
2017-Apr-27 00:28N 37°37' E 019°46'511.7
2017-Apr-27 00:00N 37°39' E 019°52'611.7
2017-Apr-26 23:29N 37°42' E 019°59'611.7
2017-Apr-26 22:59N 37°45' E 020°05'611.8
2017-Apr-26 22:30N 37°48' E 020°12'1011.9
2017-Apr-26 21:42N 37°53' E 020°22'312.1
2017-Apr-26 21:29N 37°54' E 020°25'  
2017-Apr-20 00:23N 36°41' E 014°36'411.3
2017-Apr-20 00:00N 36°42' E 014°31'511.0
2017-Apr-19 23:30N 36°44' E 014°25'510.9
2017-Apr-19 23:00N 36°46' E 014°19'510.8
2017-Apr-19 22:30N 36°48' E 014°13'611.0
2017-Apr-19 22:00N 36°51' E 014°07'611.0
2017-Apr-19 21:30N 36°54' E 014°00'511.0
2017-Apr-19 21:00N 36°56' E 013°54'611.2
2017-Apr-19 20:30N 36°59' E 013°48'611.3
2017-Apr-19 20:00N 37°02' E 013°42'611.2
2017-Apr-19 19:30N 37°04' E 013°36'  
Track history (hours):
 
Tides and Currents Weather Stations Pressure Air Temp Water Temp Dewpoint Dewpoint Depression Visibility Wind Speed Wind Dir Waves Ship Positions

Hanseatic Scout

Last reported at 2017-Apr-28 02:00 UTC. Time now 2017-Apr-28 02:15 UTC.
Position N 35°09' E 014°29'.

Length 89 m; draft 3.6 m.

Type: Ship. MMSI: 304867000.

Date/timePositionNaut miles runAvg speedWind from/ knotsBaromVisibWave heightAir tempDewpointWater temp
2017-Apr-28 02:00N 35°09' E 014°29'612.0
2017-Apr-28 01:30N 35°12' E 014°35'612.1
2017-Apr-28 01:00N 35°15' E 014°42'812.1
2017-Apr-28 00:22N 35°19' E 014°50'411.9
2017-Apr-28 00:00N 35°21' E 014°54'611.8
2017-Apr-27 23:30N 35°24' E 015°01'611.5
2017-Apr-27 23:01N 35°27' E 015°07'611.3
2017-Apr-27 22:30N 35°30' E 015°13'611.4
2017-Apr-27 22:00N 35°32' E 015°19'611.2
2017-Apr-27 21:29N 35°36' E 015°25'611.7
2017-Apr-27 21:00N 35°38' E 015°31'611.9
2017-Apr-27 20:30N 35°41' E 015°38'612.1
2017-Apr-27 20:01N 35°44' E 015°44'611.9
2017-Apr-27 19:30N 35°47' E 015°50'611.7
2017-Apr-27 19:00N 35°50' E 015°56'611.6
2017-Apr-27 18:30N 35°54' E 016°02'611.5
2017-Apr-27 18:00N 35°57' E 016°08'611.6
2017-Apr-27 17:31N 35°59' E 016°15'611.8
2017-Apr-27 17:00N 36°02' E 016°21'611.6
2017-Apr-27 16:31N 36°05' E 016°27'611.7
2017-Apr-27 16:01N 36°08' E 016°34'6710.9
2017-Apr-27 09:51N 36°41' E 017°46'3012.1
2017-Apr-27 07:22N 36°56' E 018°19'411.7
2017-Apr-27 07:00N 36°59' E 018°23'1111.8
2017-Apr-27 06:04N 37°04' E 018°35'112.0
2017-Apr-27 06:00N 37°05' E 018°36'612.0
2017-Apr-27 05:30N 37°07' E 018°43'611.8
2017-Apr-27 05:00N 37°10' E 018°49'611.3
2017-Apr-27 04:30N 37°13' E 018°55'611.2
2017-Apr-27 04:00N 37°16' E 019°01'611.3
2017-Apr-27 03:30N 37°19' E 019°07'611.5
2017-Apr-27 03:00N 37°22' E 019°14'611.6
2017-Apr-27 02:28N 37°25' E 019°20'2311.8
2017-Apr-27 00:31N 37°36' E 019°45'111.9
2017-Apr-27 00:28N 37°37' E 019°46'511.7
2017-Apr-27 00:00N 37°39' E 019°52'611.7
2017-Apr-26 23:29N 37°42' E 019°59'611.7
2017-Apr-26 22:59N 37°45' E 020°05'611.8
2017-Apr-26 22:30N 37°48' E 020°12'1011.9
2017-Apr-26 21:42N 37°53' E 020°22'312.1
2017-Apr-26 21:29N 37°54' E 020°25'  
2017-Apr-20 00:23N 36°41' E 014°36'411.3
2017-Apr-20 00:00N 36°42' E 014°31'511.0
2017-Apr-19 23:30N 36°44' E 014°25'510.9
2017-Apr-19 23:00N 36°46' E 014°19'510.8
2017-Apr-19 22:30N 36°48' E 014°13'611.0
2017-Apr-19 22:00N 36°51' E 014°07'611.0
2017-Apr-19 21:30N 36°54' E 014°00'511.0
2017-Apr-19 21:00N 36°56' E 013°54'611.2
2017-Apr-19 20:30N 36°59' E 013°48'611.3
2017-Apr-19 20:00N 37°02' E 013°42'611.2
2017-Apr-19 19:30N 37°04' E 013°36'  

Dump ship's entire track history